sensor_id;sensor_type;location;lat;lon;timestamp;temperature;humidity
24035;DHT22;12242;50.952;4.678;2023-05-07T00:00:38;16.90;99.90
24035;DHT22;12242;50.952;4.678;2023-05-07T00:03:07;16.90;99.90
24035;DHT22;12242;50.952;4.678;2023-05-07T00:05:35;16.90;99.90
24035;DHT22;12242;50.952;4.678;2023-05-07T00:08:03;16.80;99.90
24035;DHT22;12242;50.952;4.678;2023-05-07T00:10:31;16.80;99.90
24035;DHT22;12242;50.952;4.678;2023-05-07T00:12:58;16.70;99.90
24035;DHT22;12242;50.952;4.678;2023-05-07T00:15:26;16.50;99.90
24035;DHT22;12242;50.952;4.678;2023-05-07T00:17:55;16.30;99.90
24035;DHT22;12242;50.952;4.678;2023-05-07T00:20:24;16.20;99.90
24035;DHT22;12242;50.952;4.678;2023-05-07T00:22:51;16.10;99.90
24035;DHT22;12242;50.952;4.678;2023-05-07T00:25:20;15.40;99.90
24035;DHT22;12242;50.952;4.678;2023-05-07T00:27:47;15.30;99.90
24035;DHT22;12242;50.952;4.678;2023-05-07T00:30:15;15.50;99.90
24035;DHT22;12242;50.952;4.678;2023-05-07T00:32:43;15.80;99.90
24035;DHT22;12242;50.952;4.678;2023-05-07T00:35:12;16.00;99.90
24035;DHT22;12242;50.952;4.678;2023-05-07T00:37:40;16.10;99.90
24035;DHT22;12242;50.952;4.678;2023-05-07T00:40:08;16.20;99.90
24035;DHT22;12242;50.952;4.678;2023-05-07T00:42:36;16.30;99.90
24035;DHT22;12242;50.952;4.678;2023-05-07T00:45:04;16.40;99.90
24035;DHT22;12242;50.952;4.678;2023-05-07T00:47:32;16.20;99.90
24035;DHT22;12242;50.952;4.678;2023-05-07T00:50:00;16.20;99.90
24035;DHT22;12242;50.952;4.678;2023-05-07T00:52:28;16.20;99.90
24035;DHT22;12242;50.952;4.678;2023-05-07T00:54:57;15.90;99.90
24035;DHT22;12242;50.952;4.678;2023-05-07T00:57:24;15.60;99.90
24035;DHT22;12242;50.952;4.678;2023-05-07T00:59:52;15.60;99.90
24035;DHT22;12242;50.952;4.678;2023-05-07T01:02:20;15.80;99.90
24035;DHT22;12242;50.952;4.678;2023-05-07T01:04:47;15.90;99.90
24035;DHT22;12242;50.952;4.678;2023-05-07T01:07:15;16.10;99.90
24035;DHT22;12242;50.952;4.678;2023-05-07T01:09:43;16.20;99.90
24035;DHT22;12242;50.952;4.678;2023-05-07T01:12:11;16.20;99.90
24035;DHT22;12242;50.952;4.678;2023-05-07T01:14:39;16.30;99.90
24035;DHT22;12242;50.952;4.678;2023-05-07T01:17:06;16.30;99.90
24035;DHT22;12242;50.952;4.678;2023-05-07T01:19:35;16.30;99.90
24035;DHT22;12242;50.952;4.678;2023-05-07T01:22:08;16.30;99.90
24035;DHT22;12242;50.952;4.678;2023-05-07T01:24:37;16.30;99.90
24035;DHT22;12242;50.952;4.678;2023-05-07T01:27:05;16.20;99.90
24035;DHT22;12242;50.952;4.678;2023-05-07T01:29:32;16.10;99.90
24035;DHT22;12242;50.952;4.678;2023-05-07T01:32:01;16.10;99.90
24035;DHT22;12242;50.952;4.678;2023-05-07T01:34:32;16.20;99.90
24035;DHT22;12242;50.952;4.678;2023-05-07T01:37:02;16.20;99.90
24035;DHT22;12242;50.952;4.678;2023-05-07T01:39:30;16.30;99.90
24035;DHT22;12242;50.952;4.678;2023-05-07T01:41:59;16.40;99.90
24035;DHT22;12242;50.952;4.678;2023-05-07T01:44:27;16.40;99.90
24035;DHT22;12242;50.952;4.678;2023-05-07T01:46:54;16.40;99.90
24035;DHT22;12242;50.952;4.678;2023-05-07T01:49:22;16.40;99.90
24035;DHT22;12242;50.952;4.678;2023-05-07T01:51:50;16.30;99.90
24035;DHT22;12242;50.952;4.678;2023-05-07T01:54:18;16.20;99.90
24035;DHT22;12242;50.952;4.678;2023-05-07T01:56:47;16.20;99.90
24035;DHT22;12242;50.952;4.678;2023-05-07T01:59:16;16.20;99.90
24035;DHT22;12242;50.952;4.678;2023-05-07T02:01:43;15.90;99.90
24035;DHT22;12242;50.952;4.678;2023-05-07T02:04:11;15.50;99.90
24035;DHT22;12242;50.952;4.678;2023-05-07T02:06:39;15.10;99.90
24035;DHT22;12242;50.952;4.678;2023-05-07T02:09:06;14.70;99.90
24035;DHT22;12242;50.952;4.678;2023-05-07T02:11:36;14.50;99.90
24035;DHT22;12242;50.952;4.678;2023-05-07T02:14:03;14.50;99.90
24035;DHT22;12242;50.952;4.678;2023-05-07T02:16:31;14.40;99.90
24035;DHT22;12242;50.952;4.678;2023-05-07T02:18:58;14.60;99.90
24035;DHT22;12242;50.952;4.678;2023-05-07T02:21:26;14.90;99.90
24035;DHT22;12242;50.952;4.678;2023-05-07T02:23:56;15.30;99.90
24035;DHT22;12242;50.952;4.678;2023-05-07T02:26:24;15.40;99.90
24035;DHT22;12242;50.952;4.678;2023-05-07T02:28:53;15.40;99.90
24035;DHT22;12242;50.952;4.678;2023-05-07T02:31:21;15.30;99.90
24035;DHT22;12242;50.952;4.678;2023-05-07T02:33:48;15.40;99.90
24035;DHT22;12242;50.952;4.678;2023-05-07T02:36:16;15.60;99.90
24035;DHT22;12242;50.952;4.678;2023-05-07T02:38:43;15.70;99.90
24035;DHT22;12242;50.952;4.678;2023-05-07T02:41:11;15.90;99.90
24035;DHT22;12242;50.952;4.678;2023-05-07T02:43:39;15.90;99.90
24035;DHT22;12242;50.952;4.678;2023-05-07T02:46:08;15.90;99.90
24035;DHT22;12242;50.952;4.678;2023-05-07T02:48:36;15.80;99.90
24035;DHT22;12242;50.952;4.678;2023-05-07T02:51:04;15.70;99.90
24035;DHT22;12242;50.952;4.678;2023-05-07T02:53:32;15.70;99.90
24035;DHT22;12242;50.952;4.678;2023-05-07T02:56:01;15.60;99.90
24035;DHT22;12242;50.952;4.678;2023-05-07T02:58:29;15.60;99.90
24035;DHT22;12242;50.952;4.678;2023-05-07T03:00:56;15.60;99.90
24035;DHT22;12242;50.952;4.678;2023-05-07T03:03:24;15.50;99.90
24035;DHT22;12242;50.952;4.678;2023-05-07T03:05:52;15.60;99.90
24035;DHT22;12242;50.952;4.678;2023-05-07T03:08:19;15.70;99.90
24035;DHT22;12242;50.952;4.678;2023-05-07T03:10:47;15.80;99.90
24035;DHT22;12242;50.952;4.678;2023-05-07T03:13:14;15.80;99.90
24035;DHT22;12242;50.952;4.678;2023-05-07T03:15:42;15.80;99.90
24035;DHT22;12242;50.952;4.678;2023-05-07T03:18:10;15.90;99.90
24035;DHT22;12242;50.952;4.678;2023-05-07T03:20:37;16.00;99.90
24035;DHT22;12242;50.952;4.678;2023-05-07T03:23:05;16.20;99.90
24035;DHT22;12242;50.952;4.678;2023-05-07T03:25:33;16.20;99.90
24035;DHT22;12242;50.952;4.678;2023-05-07T03:28:00;16.10;99.90
24035;DHT22;12242;50.952;4.678;2023-05-07T03:30:28;16.30;99.90
24035;DHT22;12242;50.952;4.678;2023-05-07T03:32:55;16.30;99.90
24035;DHT22;12242;50.952;4.678;2023-05-07T03:35:23;16.50;99.90
24035;DHT22;12242;50.952;4.678;2023-05-07T03:37:51;16.60;99.90
24035;DHT22;12242;50.952;4.678;2023-05-07T03:40:19;16.50;99.90
24035;DHT22;12242;50.952;4.678;2023-05-07T03:42:46;16.50;99.90
24035;DHT22;12242;50.952;4.678;2023-05-07T03:45:14;16.60;99.90
24035;DHT22;12242;50.952;4.678;2023-05-07T03:47:42;16.60;99.90
24035;DHT22;12242;50.952;4.678;2023-05-07T03:50:10;16.60;99.90
24035;DHT22;12242;50.952;4.678;2023-05-07T03:52:38;16.60;99.90
24035;DHT22;12242;50.952;4.678;2023-05-07T03:55:05;16.60;99.90
24035;DHT22;12242;50.952;4.678;2023-05-07T03:57:34;16.60;99.90
24035;DHT22;12242;50.952;4.678;2023-05-07T04:00:02;16.50;99.90
24035;DHT22;12242;50.952;4.678;2023-05-07T04:02:32;16.60;99.90
24035;DHT22;12242;50.952;4.678;2023-05-07T04:05:01;16.60;99.90
24035;DHT22;12242;50.952;4.678;2023-05-07T04:07:28;16.60;99.90
24035;DHT22;12242;50.952;4.678;2023-05-07T04:09:55;16.50;99.90
24035;DHT22;12242;50.952;4.678;2023-05-07T04:12:23;16.50;99.90
24035;DHT22;12242;50.952;4.678;2023-05-07T04:14:50;16.60;99.90
24035;DHT22;12242;50.952;4.678;2023-05-07T04:17:18;16.50;99.90
24035;DHT22;12242;50.952;4.678;2023-05-07T04:19:45;16.40;99.90
24035;DHT22;12242;50.952;4.678;2023-05-07T04:22:14;16.40;99.90
24035;DHT22;12242;50.952;4.678;2023-05-07T04:24:41;16.40;99.90
24035;DHT22;12242;50.952;4.678;2023-05-07T04:27:09;16.40;99.90
24035;DHT22;12242;50.952;4.678;2023-05-07T04:29:36;16.40;99.90
24035;DHT22;12242;50.952;4.678;2023-05-07T04:32:04;16.40;99.90
24035;DHT22;12242;50.952;4.678;2023-05-07T04:34:32;16.30;99.90
24035;DHT22;12242;50.952;4.678;2023-05-07T04:37:00;16.30;99.90
24035;DHT22;12242;50.952;4.678;2023-05-07T04:39:28;16.30;99.90
24035;DHT22;12242;50.952;4.678;2023-05-07T04:41:55;16.30;99.90
24035;DHT22;12242;50.952;4.678;2023-05-07T04:44:23;16.40;99.90
24035;DHT22;12242;50.952;4.678;2023-05-07T04:46:50;16.30;99.90
24035;DHT22;12242;50.952;4.678;2023-05-07T04:49:18;16.40;99.90
24035;DHT22;12242;50.952;4.678;2023-05-07T04:51:45;16.30;99.90
24035;DHT22;12242;50.952;4.678;2023-05-07T04:54:13;16.40;99.90
24035;DHT22;12242;50.952;4.678;2023-05-07T04:56:40;16.50;99.90
24035;DHT22;12242;50.952;4.678;2023-05-07T04:59:08;16.10;99.90
24035;DHT22;12242;50.952;4.678;2023-05-07T05:01:36;15.60;99.90
24035;DHT22;12242;50.952;4.678;2023-05-07T05:04:03;15.40;99.90
24035;DHT22;12242;50.952;4.678;2023-05-07T05:06:31;15.20;99.90
24035;DHT22;12242;50.952;4.678;2023-05-07T05:08:59;15.30;99.90
24035;DHT22;12242;50.952;4.678;2023-05-07T05:11:27;15.60;99.90
24035;DHT22;12242;50.952;4.678;2023-05-07T05:13:54;15.60;99.90
24035;DHT22;12242;50.952;4.678;2023-05-07T05:16:22;15.50;99.90
24035;DHT22;12242;50.952;4.678;2023-05-07T05:18:49;16.00;99.90
24035;DHT22;12242;50.952;4.678;2023-05-07T05:21:19;16.50;99.90
24035;DHT22;12242;50.952;4.678;2023-05-07T05:23:47;16.60;99.90
24035;DHT22;12242;50.952;4.678;2023-05-07T05:26:14;16.20;99.90
24035;DHT22;12242;50.952;4.678;2023-05-07T05:28:42;15.90;99.90
24035;DHT22;12242;50.952;4.678;2023-05-07T05:31:10;16.00;99.90
24035;DHT22;12242;50.952;4.678;2023-05-07T05:33:37;16.20;99.90
24035;DHT22;12242;50.952;4.678;2023-05-07T05:36:06;16.60;99.90
24035;DHT22;12242;50.952;4.678;2023-05-07T05:38:33;16.80;99.90
24035;DHT22;12242;50.952;4.678;2023-05-07T05:41:01;16.70;99.90
24035;DHT22;12242;50.952;4.678;2023-05-07T05:43:29;17.10;99.90
24035;DHT22;12242;50.952;4.678;2023-05-07T05:45:57;17.20;99.90
24035;DHT22;12242;50.952;4.678;2023-05-07T05:48:25;17.40;99.90
24035;DHT22;12242;50.952;4.678;2023-05-07T05:50:53;17.60;99.90
24035;DHT22;12242;50.952;4.678;2023-05-07T05:53:20;17.30;99.90
24035;DHT22;12242;50.952;4.678;2023-05-07T05:55:48;17.10;99.90
24035;DHT22;12242;50.952;4.678;2023-05-07T05:58:16;17.30;99.90
24035;DHT22;12242;50.952;4.678;2023-05-07T06:00:46;17.50;99.90
24035;DHT22;12242;50.952;4.678;2023-05-07T06:03:15;17.90;99.90
24035;DHT22;12242;50.952;4.678;2023-05-07T06:05:44;18.10;99.90
24035;DHT22;12242;50.952;4.678;2023-05-07T06:08:13;17.90;99.90
24035;DHT22;12242;50.952;4.678;2023-05-07T06:10:41;18.00;99.90
24035;DHT22;12242;50.952;4.678;2023-05-07T06:13:09;18.20;99.90
24035;DHT22;12242;50.952;4.678;2023-05-07T06:15:36;18.30;99.90
24035;DHT22;12242;50.952;4.678;2023-05-07T06:18:04;18.60;99.90
24035;DHT22;12242;50.952;4.678;2023-05-07T06:20:32;18.90;99.90
24035;DHT22;12242;50.952;4.678;2023-05-07T06:22:59;19.10;99.90
24035;DHT22;12242;50.952;4.678;2023-05-07T06:25:27;19.20;99.90
24035;DHT22;12242;50.952;4.678;2023-05-07T06:27:54;19.60;99.90
24035;DHT22;12242;50.952;4.678;2023-05-07T06:30:22;19.60;99.90
24035;DHT22;12242;50.952;4.678;2023-05-07T06:32:50;19.80;99.90
24035;DHT22;12242;50.952;4.678;2023-05-07T06:35:17;20.10;99.90
24035;DHT22;12242;50.952;4.678;2023-05-07T06:37:45;20.30;99.90
24035;DHT22;12242;50.952;4.678;2023-05-07T06:40:12;20.40;99.90
24035;DHT22;12242;50.952;4.678;2023-05-07T06:42:40;20.20;99.90
24035;DHT22;12242;50.952;4.678;2023-05-07T06:45:08;20.30;99.90
24035;DHT22;12242;50.952;4.678;2023-05-07T06:47:36;19.80;99.90
24035;DHT22;12242;50.952;4.678;2023-05-07T06:50:03;19.10;99.90
24035;DHT22;12242;50.952;4.678;2023-05-07T06:52:31;18.80;99.90
24035;DHT22;12242;50.952;4.678;2023-05-07T06:54:59;18.70;99.90
24035;DHT22;12242;50.952;4.678;2023-05-07T06:57:27;18.90;99.90
24035;DHT22;12242;50.952;4.678;2023-05-07T06:59:54;18.80;99.90
24035;DHT22;12242;50.952;4.678;2023-05-07T07:02:22;18.70;99.90
24035;DHT22;12242;50.952;4.678;2023-05-07T07:04:50;18.50;99.90
24035;DHT22;12242;50.952;4.678;2023-05-07T07:07:17;18.60;99.90
24035;DHT22;12242;50.952;4.678;2023-05-07T07:09:45;18.60;99.90
24035;DHT22;12242;50.952;4.678;2023-05-07T07:12:12;18.70;99.90
24035;DHT22;12242;50.952;4.678;2023-05-07T07:14:40;18.70;99.90
24035;DHT22;12242;50.952;4.678;2023-05-07T07:17:07;18.70;99.90
24035;DHT22;12242;50.952;4.678;2023-05-07T07:19:35;18.90;99.90
24035;DHT22;12242;50.952;4.678;2023-05-07T07:22:03;18.90;99.90
24035;DHT22;12242;50.952;4.678;2023-05-07T07:24:30;18.70;99.90
24035;DHT22;12242;50.952;4.678;2023-05-07T07:26:58;18.60;99.90
24035;DHT22;12242;50.952;4.678;2023-05-07T07:29:25;18.70;99.90
24035;DHT22;12242;50.952;4.678;2023-05-07T07:31:53;18.70;99.90
24035;DHT22;12242;50.952;4.678;2023-05-07T07:34:21;18.70;99.90
24035;DHT22;12242;50.952;4.678;2023-05-07T07:36:49;18.70;99.90
24035;DHT22;12242;50.952;4.678;2023-05-07T07:39:16;18.70;99.90
24035;DHT22;12242;50.952;4.678;2023-05-07T07:41:44;18.70;99.90
24035;DHT22;12242;50.952;4.678;2023-05-07T07:44:11;19.00;99.90
24035;DHT22;12242;50.952;4.678;2023-05-07T07:46:42;18.80;99.90
24035;DHT22;12242;50.952;4.678;2023-05-07T07:49:10;18.90;99.90
24035;DHT22;12242;50.952;4.678;2023-05-07T07:51:37;18.90;99.90
24035;DHT22;12242;50.952;4.678;2023-05-07T07:54:05;19.10;99.90
24035;DHT22;12242;50.952;4.678;2023-05-07T07:56:33;19.20;99.90
24035;DHT22;12242;50.952;4.678;2023-05-07T07:59:03;19.40;99.90
24035;DHT22;12242;50.952;4.678;2023-05-07T08:01:31;19.10;99.90
24035;DHT22;12242;50.952;4.678;2023-05-07T08:03:59;19.20;99.90
24035;DHT22;12242;50.952;4.678;2023-05-07T08:06:27;19.00;99.90
24035;DHT22;12242;50.952;4.678;2023-05-07T08:08:54;18.80;99.90
24035;DHT22;12242;50.952;4.678;2023-05-07T08:11:22;18.40;99.90
24035;DHT22;12242;50.952;4.678;2023-05-07T08:13:50;18.30;99.90
24035;DHT22;12242;50.952;4.678;2023-05-07T08:16:17;18.50;99.90
24035;DHT22;12242;50.952;4.678;2023-05-07T08:18:47;18.60;99.90
24035;DHT22;12242;50.952;4.678;2023-05-07T08:21:14;19.00;99.90
24035;DHT22;12242;50.952;4.678;2023-05-07T08:23:42;18.90;99.90
24035;DHT22;12242;50.952;4.678;2023-05-07T08:26:09;18.90;99.90
24035;DHT22;12242;50.952;4.678;2023-05-07T08:28:37;19.00;99.90
24035;DHT22;12242;50.952;4.678;2023-05-07T08:31:04;18.90;99.90
24035;DHT22;12242;50.952;4.678;2023-05-07T08:33:32;18.90;99.90
24035;DHT22;12242;50.952;4.678;2023-05-07T08:35:59;19.10;99.90
24035;DHT22;12242;50.952;4.678;2023-05-07T08:38:27;19.20;99.90
24035;DHT22;12242;50.952;4.678;2023-05-07T08:40:55;19.60;99.90
24035;DHT22;12242;50.952;4.678;2023-05-07T08:43:26;19.70;99.90
24035;DHT22;12242;50.952;4.678;2023-05-07T08:45:55;19.60;99.90
24035;DHT22;12242;50.952;4.678;2023-05-07T08:48:25;19.90;99.90
24035;DHT22;12242;50.952;4.678;2023-05-07T08:50:54;19.60;99.90
24035;DHT22;12242;50.952;4.678;2023-05-07T08:53:22;19.80;99.90
24035;DHT22;12242;50.952;4.678;2023-05-07T08:55:49;20.30;99.90
24035;DHT22;12242;50.952;4.678;2023-05-07T08:58:17;20.80;99.90
24035;DHT22;12242;50.952;4.678;2023-05-07T09:00:45;21.00;99.90
24035;DHT22;12242;50.952;4.678;2023-05-07T09:03:14;21.40;99.90
24035;DHT22;12242;50.952;4.678;2023-05-07T09:05:41;21.40;99.90
24035;DHT22;12242;50.952;4.678;2023-05-07T09:08:14;21.30;99.90
24035;DHT22;12242;50.952;4.678;2023-05-07T09:10:44;21.20;99.90
24035;DHT22;12242;50.952;4.678;2023-05-07T09:13:11;20.70;99.90
24035;DHT22;12242;50.952;4.678;2023-05-07T09:15:41;19.80;99.90
24035;DHT22;12242;50.952;4.678;2023-05-07T09:18:09;19.70;99.90
24035;DHT22;12242;50.952;4.678;2023-05-07T09:20:37;19.80;99.90
24035;DHT22;12242;50.952;4.678;2023-05-07T09:23:08;20.20;99.90
24035;DHT22;12242;50.952;4.678;2023-05-07T09:25:36;20.40;99.90
24035;DHT22;12242;50.952;4.678;2023-05-07T09:28:04;20.50;99.90
24035;DHT22;12242;50.952;4.678;2023-05-07T09:30:37;20.50;99.90
24035;DHT22;12242;50.952;4.678;2023-05-07T09:33:04;20.50;99.90
24035;DHT22;12242;50.952;4.678;2023-05-07T09:35:32;20.50;99.90
24035;DHT22;12242;50.952;4.678;2023-05-07T09:38:00;20.50;99.90
24035;DHT22;12242;50.952;4.678;2023-05-07T09:40:31;20.80;99.90
24035;DHT22;12242;50.952;4.678;2023-05-07T09:43:09;20.90;99.90
24035;DHT22;12242;50.952;4.678;2023-05-07T09:45:38;20.90;99.90
24035;DHT22;12242;50.952;4.678;2023-05-07T09:48:06;21.00;99.90
24035;DHT22;12242;50.952;4.678;2023-05-07T09:50:49;21.00;99.90
24035;DHT22;12242;50.952;4.678;2023-05-07T09:53:17;20.90;99.90
24035;DHT22;12242;50.952;4.678;2023-05-07T09:55:45;20.90;99.90
24035;DHT22;12242;50.952;4.678;2023-05-07T09:58:15;21.20;99.90
24035;DHT22;12242;50.952;4.678;2023-05-07T10:00:43;21.10;99.90
24035;DHT22;12242;50.952;4.678;2023-05-07T10:03:11;21.40;99.90
24035;DHT22;12242;50.952;4.678;2023-05-07T10:05:40;21.20;99.90
24035;DHT22;12242;50.952;4.678;2023-05-07T10:08:10;21.50;99.90
24035;DHT22;12242;50.952;4.678;2023-05-07T10:10:38;21.30;99.90
24035;DHT22;12242;50.952;4.678;2023-05-07T10:13:05;21.30;99.90
24035;DHT22;12242;50.952;4.678;2023-05-07T10:15:37;21.70;99.90
24035;DHT22;12242;50.952;4.678;2023-05-07T10:18:06;21.60;99.90
24035;DHT22;12242;50.952;4.678;2023-05-07T10:20:34;21.40;99.90
24035;DHT22;12242;50.952;4.678;2023-05-07T10:23:04;21.30;99.90
24035;DHT22;12242;50.952;4.678;2023-05-07T10:25:33;21.50;99.90
24035;DHT22;12242;50.952;4.678;2023-05-07T10:28:06;21.60;99.90
24035;DHT22;12242;50.952;4.678;2023-05-07T10:30:45;21.40;99.90
24035;DHT22;12242;50.952;4.678;2023-05-07T10:33:16;21.40;99.90
24035;DHT22;12242;50.952;4.678;2023-05-07T10:35:45;21.50;99.90
24035;DHT22;12242;50.952;4.678;2023-05-07T10:38:14;21.40;99.90
24035;DHT22;12242;50.952;4.678;2023-05-07T10:40:44;21.40;99.90
24035;DHT22;12242;50.952;4.678;2023-05-07T10:43:14;21.30;99.90
24035;DHT22;12242;50.952;4.678;2023-05-07T10:45:42;21.20;99.90
24035;DHT22;12242;50.952;4.678;2023-05-07T10:50:42;21.60;99.90
24035;DHT22;12242;50.952;4.678;2023-05-07T10:55:51;21.40;99.90
24035;DHT22;12242;50.952;4.678;2023-05-07T10:58:29;21.40;99.90
24035;DHT22;12242;50.952;4.678;2023-05-07T11:01:00;21.50;99.90
24035;DHT22;12242;50.952;4.678;2023-05-07T11:03:29;21.40;99.90
24035;DHT22;12242;50.952;4.678;2023-05-07T11:06:13;21.30;99.90
24035;DHT22;12242;50.952;4.678;2023-05-07T11:08:56;21.20;99.90
24035;DHT22;12242;50.952;4.678;2023-05-07T11:14:14;21.20;99.90
24035;DHT22;12242;50.952;4.678;2023-05-07T11:17:04;21.30;99.90
24035;DHT22;12242;50.952;4.678;2023-05-07T11:19:51;21.60;99.90
24035;DHT22;12242;50.952;4.678;2023-05-07T11:25:03;22.10;99.90
24035;DHT22;12242;50.952;4.678;2023-05-07T11:27:31;22.10;99.90
24035;DHT22;12242;50.952;4.678;2023-05-07T11:29:59;22.00;99.90
24035;DHT22;12242;50.952;4.678;2023-05-07T11:32:30;22.10;99.90
24035;DHT22;12242;50.952;4.678;2023-05-07T11:34:59;22.20;99.90
24035;DHT22;12242;50.952;4.678;2023-05-07T11:37:28;22.50;99.90
24035;DHT22;12242;50.952;4.678;2023-05-07T11:40:04;22.80;99.90
24035;DHT22;12242;50.952;4.678;2023-05-07T11:42:34;22.90;99.90
24035;DHT22;12242;50.952;4.678;2023-05-07T11:45:03;23.00;99.90
24035;DHT22;12242;50.952;4.678;2023-05-07T11:47:32;22.60;99.90
24035;DHT22;12242;50.952;4.678;2023-05-07T11:50:07;22.30;99.90
24035;DHT22;12242;50.952;4.678;2023-05-07T11:52:35;21.70;99.90
24035;DHT22;12242;50.952;4.678;2023-05-07T11:55:03;21.50;99.90
24035;DHT22;12242;50.952;4.678;2023-05-07T11:57:33;21.70;99.90
24035;DHT22;12242;50.952;4.678;2023-05-07T12:00:02;21.90;99.90
24035;DHT22;12242;50.952;4.678;2023-05-07T12:02:32;22.20;99.90
24035;DHT22;12242;50.952;4.678;2023-05-07T12:05:00;22.40;99.90
24035;DHT22;12242;50.952;4.678;2023-05-07T12:07:28;22.70;99.90
24035;DHT22;12242;50.952;4.678;2023-05-07T12:09:55;22.70;99.90
24035;DHT22;12242;50.952;4.678;2023-05-07T12:12:23;23.00;99.90
24035;DHT22;12242;50.952;4.678;2023-05-07T12:14:51;23.10;99.90
24035;DHT22;12242;50.952;4.678;2023-05-07T12:17:19;22.90;99.90
24035;DHT22;12242;50.952;4.678;2023-05-07T12:19:47;23.30;99.90
24035;DHT22;12242;50.952;4.678;2023-05-07T12:22:14;23.60;99.90
24035;DHT22;12242;50.952;4.678;2023-05-07T12:25:08;24.00;99.90
24035;DHT22;12242;50.952;4.678;2023-05-07T12:27:37;24.30;99.90
24035;DHT22;12242;50.952;4.678;2023-05-07T12:30:08;24.30;99.90
24035;DHT22;12242;50.952;4.678;2023-05-07T12:32:37;24.10;99.90
24035;DHT22;12242;50.952;4.678;2023-05-07T12:35:06;24.00;99.90
24035;DHT22;12242;50.952;4.678;2023-05-07T12:37:35;23.60;99.90
24035;DHT22;12242;50.952;4.678;2023-05-07T12:40:07;23.10;99.90
24035;DHT22;12242;50.952;4.678;2023-05-07T12:42:39;23.00;99.90
24035;DHT22;12242;50.952;4.678;2023-05-07T12:45:11;22.60;99.90
24035;DHT22;12242;50.952;4.678;2023-05-07T12:47:43;22.70;99.90
24035;DHT22;12242;50.952;4.678;2023-05-07T12:50:10;22.80;99.90
24035;DHT22;12242;50.952;4.678;2023-05-07T12:52:38;22.70;99.90
24035;DHT22;12242;50.952;4.678;2023-05-07T12:55:07;22.90;99.90
24035;DHT22;12242;50.952;4.678;2023-05-07T12:57:39;23.10;99.90
24035;DHT22;12242;50.952;4.678;2023-05-07T13:00:08;23.20;99.90
24035;DHT22;12242;50.952;4.678;2023-05-07T13:02:40;22.90;99.90
24035;DHT22;12242;50.952;4.678;2023-05-07T13:05:08;23.20;99.90
24035;DHT22;12242;50.952;4.678;2023-05-07T13:07:36;23.20;99.90
24035;DHT22;12242;50.952;4.678;2023-05-07T13:10:05;23.50;99.90
24035;DHT22;12242;50.952;4.678;2023-05-07T13:12:32;23.40;99.90
24035;DHT22;12242;50.952;4.678;2023-05-07T13:15:00;23.50;99.90
24035;DHT22;12242;50.952;4.678;2023-05-07T13:17:27;23.40;99.90
24035;DHT22;12242;50.952;4.678;2023-05-07T13:19:55;23.10;99.90
24035;DHT22;12242;50.952;4.678;2023-05-07T13:22:22;23.20;99.90
24035;DHT22;12242;50.952;4.678;2023-05-07T13:24:50;23.00;99.90
24035;DHT22;12242;50.952;4.678;2023-05-07T13:27:18;22.70;99.90
24035;DHT22;12242;50.952;4.678;2023-05-07T13:29:46;22.90;99.90
24035;DHT22;12242;50.952;4.678;2023-05-07T13:32:14;22.90;99.90
24035;DHT22;12242;50.952;4.678;2023-05-07T13:34:41;23.20;99.90
24035;DHT22;12242;50.952;4.678;2023-05-07T13:37:09;23.50;99.90
24035;DHT22;12242;50.952;4.678;2023-05-07T13:39:38;23.70;99.90
24035;DHT22;12242;50.952;4.678;2023-05-07T13:42:05;23.70;99.90
24035;DHT22;12242;50.952;4.678;2023-05-07T13:44:33;23.50;99.90
24035;DHT22;12242;50.952;4.678;2023-05-07T13:47:00;23.80;99.90
24035;DHT22;12242;50.952;4.678;2023-05-07T13:49:29;23.70;99.90
24035;DHT22;12242;50.952;4.678;2023-05-07T13:51:56;24.00;99.90
24035;DHT22;12242;50.952;4.678;2023-05-07T13:54:24;23.90;99.90
24035;DHT22;12242;50.952;4.678;2023-05-07T13:56:52;23.20;99.90
24035;DHT22;12242;50.952;4.678;2023-05-07T13:59:19;22.90;99.90
24035;DHT22;12242;50.952;4.678;2023-05-07T14:01:47;22.90;99.90
24035;DHT22;12242;50.952;4.678;2023-05-07T14:04:15;23.20;99.90
24035;DHT22;12242;50.952;4.678;2023-05-07T14:06:42;23.30;99.90
24035;DHT22;12242;50.952;4.678;2023-05-07T14:09:10;22.90;99.90
24035;DHT22;12242;50.952;4.678;2023-05-07T14:11:39;22.90;99.90
24035;DHT22;12242;50.952;4.678;2023-05-07T14:14:07;23.00;99.90
24035;DHT22;12242;50.952;4.678;2023-05-07T14:16:34;22.90;99.90
24035;DHT22;12242;50.952;4.678;2023-05-07T14:19:02;23.10;99.90
24035;DHT22;12242;50.952;4.678;2023-05-07T14:21:29;23.00;99.90
24035;DHT22;12242;50.952;4.678;2023-05-07T14:23:58;22.90;99.90
24035;DHT22;12242;50.952;4.678;2023-05-07T14:26:27;22.80;99.90
24035;DHT22;12242;50.952;4.678;2023-05-07T14:28:55;22.50;99.90
24035;DHT22;12242;50.952;4.678;2023-05-07T14:31:25;22.30;99.90
24035;DHT22;12242;50.952;4.678;2023-05-07T14:33:52;22.00;99.90
24035;DHT22;12242;50.952;4.678;2023-05-07T14:36:20;22.00;99.90
24035;DHT22;12242;50.952;4.678;2023-05-07T14:38:50;22.30;99.90
24035;DHT22;12242;50.952;4.678;2023-05-07T14:41:17;22.60;99.90
24035;DHT22;12242;50.952;4.678;2023-05-07T14:43:45;22.50;99.90
24035;DHT22;12242;50.952;4.678;2023-05-07T14:46:18;22.50;99.90
24035;DHT22;12242;50.952;4.678;2023-05-07T14:48:45;22.50;99.90
24035;DHT22;12242;50.952;4.678;2023-05-07T14:51:14;22.50;99.90
24035;DHT22;12242;50.952;4.678;2023-05-07T14:53:41;22.10;99.90
24035;DHT22;12242;50.952;4.678;2023-05-07T14:56:09;22.20;99.90
24035;DHT22;12242;50.952;4.678;2023-05-07T14:58:37;21.90;99.90
24035;DHT22;12242;50.952;4.678;2023-05-07T15:01:05;22.10;99.90
24035;DHT22;12242;50.952;4.678;2023-05-07T15:03:32;22.40;99.90
24035;DHT22;12242;50.952;4.678;2023-05-07T15:06:01;22.40;99.90
24035;DHT22;12242;50.952;4.678;2023-05-07T15:08:29;22.40;99.90
24035;DHT22;12242;50.952;4.678;2023-05-07T15:10:57;22.50;99.90
24035;DHT22;12242;50.952;4.678;2023-05-07T15:13:25;21.90;99.90
24035;DHT22;12242;50.952;4.678;2023-05-07T15:15:53;21.50;99.90
24035;DHT22;12242;50.952;4.678;2023-05-07T15:18:20;21.60;99.90
24035;DHT22;12242;50.952;4.678;2023-05-07T15:20:49;22.00;99.90
24035;DHT22;12242;50.952;4.678;2023-05-07T15:23:16;22.40;99.90
24035;DHT22;12242;50.952;4.678;2023-05-07T15:25:44;22.20;99.90
24035;DHT22;12242;50.952;4.678;2023-05-07T15:28:14;21.70;99.90
24035;DHT22;12242;50.952;4.678;2023-05-07T15:30:42;21.50;99.90
24035;DHT22;12242;50.952;4.678;2023-05-07T15:33:09;21.50;99.90
24035;DHT22;12242;50.952;4.678;2023-05-07T15:35:37;21.10;99.90
24035;DHT22;12242;50.952;4.678;2023-05-07T15:38:04;20.80;99.90
24035;DHT22;12242;50.952;4.678;2023-05-07T15:40:32;20.50;99.90
24035;DHT22;12242;50.952;4.678;2023-05-07T15:43:02;20.50;99.90
24035;DHT22;12242;50.952;4.678;2023-05-07T15:45:29;20.40;99.90
24035;DHT22;12242;50.952;4.678;2023-05-07T15:47:57;21.00;99.90